sensor_id;sensor_type;location;lat;lon;timestamp;temperature;humidity
58161;DHT22;49345;47.428;9.892;2022-09-09T00:04:35;15.10;99.90
58161;DHT22;49345;47.428;9.892;2022-09-09T00:07:04;15.00;99.90
58161;DHT22;49345;47.428;9.892;2022-09-09T00:09:36;15.00;99.90
58161;DHT22;49345;47.428;9.892;2022-09-09T00:12:06;15.00;99.90
58161;DHT22;49345;47.428;9.892;2022-09-09T00:20:16;15.10;99.90
58161;DHT22;49345;47.428;9.892;2022-09-09T00:22:47;15.10;99.90
58161;DHT22;49345;47.428;9.892;2022-09-09T00:25:14;15.20;99.90
58161;DHT22;49345;47.428;9.892;2022-09-09T00:27:46;15.20;99.90
58161;DHT22;49345;47.428;9.892;2022-09-09T00:32:52;15.20;99.90
58161;DHT22;49345;47.428;9.892;2022-09-09T00:38:02;15.20;99.90
58161;DHT22;49345;47.428;9.892;2022-09-09T00:40:32;15.20;99.90
58161;DHT22;49345;47.428;9.892;2022-09-09T00:48:42;15.10;99.90
58161;DHT22;49345;47.428;9.892;2022-09-09T00:51:15;15.10;99.90
58161;DHT22;49345;47.428;9.892;2022-09-09T00:56:38;15.10;99.90
58161;DHT22;49345;47.428;9.892;2022-09-09T01:01:51;15.00;99.90
58161;DHT22;49345;47.428;9.892;2022-09-09T01:04:21;15.10;99.90
58161;DHT22;49345;47.428;9.892;2022-09-09T01:06:49;15.00;99.90
58161;DHT22;49345;47.428;9.892;2022-09-09T01:09:21;15.00;99.90
58161;DHT22;49345;47.428;9.892;2022-09-09T01:11:55;15.00;99.90
58161;DHT22;49345;47.428;9.892;2022-09-09T01:14:27;15.00;99.90
58161;DHT22;49345;47.428;9.892;2022-09-09T01:16:56;14.90;99.90
58161;DHT22;49345;47.428;9.892;2022-09-09T01:19:35;15.00;99.90
58161;DHT22;49345;47.428;9.892;2022-09-09T01:22:09;15.00;99.90
58161;DHT22;49345;47.428;9.892;2022-09-09T01:24:40;14.90;99.90
58161;DHT22;49345;47.428;9.892;2022-09-09T01:27:10;14.90;99.90
58161;DHT22;49345;47.428;9.892;2022-09-09T01:29:35;14.90;99.90
58161;DHT22;49345;47.428;9.892;2022-09-09T01:32:02;14.70;99.90
58161;DHT22;49345;47.428;9.892;2022-09-09T01:34:29;14.70;99.90
58161;DHT22;49345;47.428;9.892;2022-09-09T01:36:57;14.70;99.90
58161;DHT22;49345;47.428;9.892;2022-09-09T01:39:24;14.70;99.90
58161;DHT22;49345;47.428;9.892;2022-09-09T01:41:50;14.70;99.90
58161;DHT22;49345;47.428;9.892;2022-09-09T01:44:15;14.70;99.90
58161;DHT22;49345;47.428;9.892;2022-09-09T01:46:41;14.70;99.90
58161;DHT22;49345;47.428;9.892;2022-09-09T01:49:07;14.70;99.90
58161;DHT22;49345;47.428;9.892;2022-09-09T01:51:33;14.80;99.90
58161;DHT22;49345;47.428;9.892;2022-09-09T01:54:13;14.70;99.90
58161;DHT22;49345;47.428;9.892;2022-09-09T02:02:19;14.70;99.90
58161;DHT22;49345;47.428;9.892;2022-09-09T02:04:52;14.60;99.90
58161;DHT22;49345;47.428;9.892;2022-09-09T02:07:22;14.60;99.90
58161;DHT22;49345;47.428;9.892;2022-09-09T02:09:52;14.60;99.90
58161;DHT22;49345;47.428;9.892;2022-09-09T02:12:20;14.60;99.90
58161;DHT22;49345;47.428;9.892;2022-09-09T02:14:47;14.60;99.90
58161;DHT22;49345;47.428;9.892;2022-09-09T02:17:15;14.60;99.90
58161;DHT22;49345;47.428;9.892;2022-09-09T02:19:44;14.60;99.90
58161;DHT22;49345;47.428;9.892;2022-09-09T02:22:11;14.70;99.90
58161;DHT22;49345;47.428;9.892;2022-09-09T02:24:37;14.70;99.90
58161;DHT22;49345;47.428;9.892;2022-09-09T02:27:04;14.70;99.90
58161;DHT22;49345;47.428;9.892;2022-09-09T02:29:34;14.70;99.90
58161;DHT22;49345;47.428;9.892;2022-09-09T02:32:01;14.70;99.90
58161;DHT22;49345;47.428;9.892;2022-09-09T02:34:29;14.60;99.90
58161;DHT22;49345;47.428;9.892;2022-09-09T02:36:57;14.60;99.90
58161;DHT22;49345;47.428;9.892;2022-09-09T02:39:22;14.50;99.90
58161;DHT22;49345;47.428;9.892;2022-09-09T02:41:48;14.40;99.90
58161;DHT22;49345;47.428;9.892;2022-09-09T02:44:15;14.40;99.90
58161;DHT22;49345;47.428;9.892;2022-09-09T02:52:14;14.30;99.90
58161;DHT22;49345;47.428;9.892;2022-09-09T02:54:41;14.30;99.90
58161;DHT22;49345;47.428;9.892;2022-09-09T02:59:51;14.30;99.90
58161;DHT22;49345;47.428;9.892;2022-09-09T03:02:18;14.40;99.90
58161;DHT22;49345;47.428;9.892;2022-09-09T03:04:44;14.40;99.90
58161;DHT22;49345;47.428;9.892;2022-09-09T03:07:10;14.30;99.90
58161;DHT22;49345;47.428;9.892;2022-09-09T03:09:36;14.30;99.90
58161;DHT22;49345;47.428;9.892;2022-09-09T03:12:02;14.30;99.90
58161;DHT22;49345;47.428;9.892;2022-09-09T03:14:29;14.30;99.90
58161;DHT22;49345;47.428;9.892;2022-09-09T03:16:55;14.30;99.90
58161;DHT22;49345;47.428;9.892;2022-09-09T03:19:23;14.30;99.90
58161;DHT22;49345;47.428;9.892;2022-09-09T03:21:48;14.20;99.90
58161;DHT22;49345;47.428;9.892;2022-09-09T03:24:14;14.20;99.90
58161;DHT22;49345;47.428;9.892;2022-09-09T03:26:40;14.20;99.90
58161;DHT22;49345;47.428;9.892;2022-09-09T03:29:07;14.20;99.90
58161;DHT22;49345;47.428;9.892;2022-09-09T03:31:33;14.20;99.90
58161;DHT22;49345;47.428;9.892;2022-09-09T03:33:59;14.10;99.90
58161;DHT22;49345;47.428;9.892;2022-09-09T03:36:25;14.20;99.90
58161;DHT22;49345;47.428;9.892;2022-09-09T03:38:51;14.10;99.90
58161;DHT22;49345;47.428;9.892;2022-09-09T03:41:17;14.10;99.90
58161;DHT22;49345;47.428;9.892;2022-09-09T03:43:43;14.10;99.90
58161;DHT22;49345;47.428;9.892;2022-09-09T03:46:09;14.20;99.90
58161;DHT22;49345;47.428;9.892;2022-09-09T03:48:35;14.30;99.90
58161;DHT22;49345;47.428;9.892;2022-09-09T03:51:00;14.30;99.90
58161;DHT22;49345;47.428;9.892;2022-09-09T03:53:26;14.30;99.90
58161;DHT22;49345;47.428;9.892;2022-09-09T03:55:53;14.40;99.90
58161;DHT22;49345;47.428;9.892;2022-09-09T03:58:20;14.40;99.90
58161;DHT22;49345;47.428;9.892;2022-09-09T04:03:42;14.40;99.90
58161;DHT22;49345;47.428;9.892;2022-09-09T04:06:08;14.40;99.90
58161;DHT22;49345;47.428;9.892;2022-09-09T04:08:34;14.40;99.90
58161;DHT22;49345;47.428;9.892;2022-09-09T04:11:01;14.40;99.90
58161;DHT22;49345;47.428;9.892;2022-09-09T04:13:30;14.50;99.90
58161;DHT22;49345;47.428;9.892;2022-09-09T04:15:57;14.60;99.90
58161;DHT22;49345;47.428;9.892;2022-09-09T04:18:24;14.70;99.90
58161;DHT22;49345;47.428;9.892;2022-09-09T04:20:50;14.70;99.90
58161;DHT22;49345;47.428;9.892;2022-09-09T04:23:16;14.70;99.90
58161;DHT22;49345;47.428;9.892;2022-09-09T04:25:45;14.70;99.90
58161;DHT22;49345;47.428;9.892;2022-09-09T04:28:12;14.70;99.90
58161;DHT22;49345;47.428;9.892;2022-09-09T04:30:38;14.70;99.90
58161;DHT22;49345;47.428;9.892;2022-09-09T04:33:05;14.70;99.90
58161;DHT22;49345;47.428;9.892;2022-09-09T04:35:31;14.70;99.90
58161;DHT22;49345;47.428;9.892;2022-09-09T04:37:56;14.80;99.90
58161;DHT22;49345;47.428;9.892;2022-09-09T04:40:22;14.70;99.90
58161;DHT22;49345;47.428;9.892;2022-09-09T04:42:47;14.70;99.90
58161;DHT22;49345;47.428;9.892;2022-09-09T04:45:14;14.70;99.90
58161;DHT22;49345;47.428;9.892;2022-09-09T04:47:40;14.80;99.90
58161;DHT22;49345;47.428;9.892;2022-09-09T04:50:06;14.80;99.90
58161;DHT22;49345;47.428;9.892;2022-09-09T04:52:33;14.80;99.90
58161;DHT22;49345;47.428;9.892;2022-09-09T04:55:02;14.90;99.90
58161;DHT22;49345;47.428;9.892;2022-09-09T04:57:28;14.90;99.90
58161;DHT22;49345;47.428;9.892;2022-09-09T04:59:54;14.90;99.90
58161;DHT22;49345;47.428;9.892;2022-09-09T05:02:19;14.80;99.90
58161;DHT22;49345;47.428;9.892;2022-09-09T05:04:45;14.80;99.90
58161;DHT22;49345;47.428;9.892;2022-09-09T05:07:10;14.90;99.90
58161;DHT22;49345;47.428;9.892;2022-09-09T05:09:36;14.90;99.90
58161;DHT22;49345;47.428;9.892;2022-09-09T05:12:02;15.00;99.90
58161;DHT22;49345;47.428;9.892;2022-09-09T05:14:28;15.00;99.90
58161;DHT22;49345;47.428;9.892;2022-09-09T05:16:54;15.00;99.90
58161;DHT22;49345;47.428;9.892;2022-09-09T05:19:21;15.00;99.90
58161;DHT22;49345;47.428;9.892;2022-09-09T05:21:47;15.00;99.90
58161;DHT22;49345;47.428;9.892;2022-09-09T05:24:12;15.00;99.90
58161;DHT22;49345;47.428;9.892;2022-09-09T05:26:38;15.00;99.90
58161;DHT22;49345;47.428;9.892;2022-09-09T05:29:03;14.90;99.90
58161;DHT22;49345;47.428;9.892;2022-09-09T05:31:29;15.10;99.90
58161;DHT22;49345;47.428;9.892;2022-09-09T05:33:55;15.10;99.90
58161;DHT22;49345;47.428;9.892;2022-09-09T05:36:22;15.20;99.90
58161;DHT22;49345;47.428;9.892;2022-09-09T05:38:47;15.20;99.90
58161;DHT22;49345;47.428;9.892;2022-09-09T05:41:14;15.30;99.90
58161;DHT22;49345;47.428;9.892;2022-09-09T05:43:41;15.40;99.90
58161;DHT22;49345;47.428;9.892;2022-09-09T05:46:10;15.50;99.90
58161;DHT22;49345;47.428;9.892;2022-09-09T05:48:37;15.60;99.90
58161;DHT22;49345;47.428;9.892;2022-09-09T05:51:04;15.60;99.90
58161;DHT22;49345;47.428;9.892;2022-09-09T05:53:30;15.60;99.90
58161;DHT22;49345;47.428;9.892;2022-09-09T05:55:58;15.50;99.90
58161;DHT22;49345;47.428;9.892;2022-09-09T05:58:24;15.60;99.90
58161;DHT22;49345;47.428;9.892;2022-09-09T06:00:49;15.60;99.90
58161;DHT22;49345;47.428;9.892;2022-09-09T06:03:15;15.60;99.90
58161;DHT22;49345;47.428;9.892;2022-09-09T06:05:42;15.70;99.90
58161;DHT22;49345;47.428;9.892;2022-09-09T06:08:07;15.80;99.90
58161;DHT22;49345;47.428;9.892;2022-09-09T06:10:33;15.90;99.90
58161;DHT22;49345;47.428;9.892;2022-09-09T06:12:59;15.90;99.90
58161;DHT22;49345;47.428;9.892;2022-09-09T06:15:25;16.00;99.90
58161;DHT22;49345;47.428;9.892;2022-09-09T06:17:54;16.00;99.90
58161;DHT22;49345;47.428;9.892;2022-09-09T06:20:19;16.00;99.90
58161;DHT22;49345;47.428;9.892;2022-09-09T06:22:45;16.00;99.90
58161;DHT22;49345;47.428;9.892;2022-09-09T06:25:12;16.00;99.90
58161;DHT22;49345;47.428;9.892;2022-09-09T06:27:37;16.00;99.90
58161;DHT22;49345;47.428;9.892;2022-09-09T06:30:03;16.00;99.90
58161;DHT22;49345;47.428;9.892;2022-09-09T06:32:28;16.00;99.90
58161;DHT22;49345;47.428;9.892;2022-09-09T06:34:54;16.00;99.90
58161;DHT22;49345;47.428;9.892;2022-09-09T06:37:19;15.90;99.90
58161;DHT22;49345;47.428;9.892;2022-09-09T06:39:45;16.00;99.90
58161;DHT22;49345;47.428;9.892;2022-09-09T06:42:11;16.00;99.90
58161;DHT22;49345;47.428;9.892;2022-09-09T06:44:36;16.20;99.90
58161;DHT22;49345;47.428;9.892;2022-09-09T06:47:02;16.20;99.90
58161;DHT22;49345;47.428;9.892;2022-09-09T06:49:27;16.40;99.90
58161;DHT22;49345;47.428;9.892;2022-09-09T06:51:53;16.40;99.90
58161;DHT22;49345;47.428;9.892;2022-09-09T06:54:19;16.50;99.90
58161;DHT22;49345;47.428;9.892;2022-09-09T06:56:45;16.60;99.90
58161;DHT22;49345;47.428;9.892;2022-09-09T06:59:11;16.70;99.90
58161;DHT22;49345;47.428;9.892;2022-09-09T07:01:39;16.80;99.90
58161;DHT22;49345;47.428;9.892;2022-09-09T07:04:06;16.90;99.90
58161;DHT22;49345;47.428;9.892;2022-09-09T07:06:35;16.90;99.90
58161;DHT22;49345;47.428;9.892;2022-09-09T07:09:02;16.90;99.90
58161;DHT22;49345;47.428;9.892;2022-09-09T07:11:33;16.90;99.90
58161;DHT22;49345;47.428;9.892;2022-09-09T07:13:59;16.80;99.90
58161;DHT22;49345;47.428;9.892;2022-09-09T07:16:25;16.90;99.90
58161;DHT22;49345;47.428;9.892;2022-09-09T07:18:52;16.80;99.90
58161;DHT22;49345;47.428;9.892;2022-09-09T07:21:23;16.70;99.90
58161;DHT22;49345;47.428;9.892;2022-09-09T07:23:49;16.70;99.90
58161;DHT22;49345;47.428;9.892;2022-09-09T07:26:17;16.60;99.90
58161;DHT22;49345;47.428;9.892;2022-09-09T07:28:44;16.60;99.90
58161;DHT22;49345;47.428;9.892;2022-09-09T07:31:18;16.60;99.90
58161;DHT22;49345;47.428;9.892;2022-09-09T07:33:44;16.70;99.90
58161;DHT22;49345;47.428;9.892;2022-09-09T07:36:18;16.70;99.90
58161;DHT22;49345;47.428;9.892;2022-09-09T07:38:48;16.70;99.90
58161;DHT22;49345;47.428;9.892;2022-09-09T07:41:16;16.80;99.90
58161;DHT22;49345;47.428;9.892;2022-09-09T07:43:43;16.70;99.90
58161;DHT22;49345;47.428;9.892;2022-09-09T07:46:09;16.70;99.90
58161;DHT22;49345;47.428;9.892;2022-09-09T07:48:35;16.70;99.90
58161;DHT22;49345;47.428;9.892;2022-09-09T07:51:05;16.70;99.90
58161;DHT22;49345;47.428;9.892;2022-09-09T07:53:31;16.60;99.90
58161;DHT22;49345;47.428;9.892;2022-09-09T07:56:02;16.60;99.90
58161;DHT22;49345;47.428;9.892;2022-09-09T07:58:27;16.50;99.90
58161;DHT22;49345;47.428;9.892;2022-09-09T08:00:53;16.60;99.90
58161;DHT22;49345;47.428;9.892;2022-09-09T08:03:18;16.60;99.90
58161;DHT22;49345;47.428;9.892;2022-09-09T08:05:45;16.60;99.90
58161;DHT22;49345;47.428;9.892;2022-09-09T08:08:10;16.60;99.90
58161;DHT22;49345;47.428;9.892;2022-09-09T08:10:36;16.60;99.90
58161;DHT22;49345;47.428;9.892;2022-09-09T08:13:02;16.70;99.90
58161;DHT22;49345;47.428;9.892;2022-09-09T08:15:28;16.60;99.90
58161;DHT22;49345;47.428;9.892;2022-09-09T08:17:55;16.70;99.90
58161;DHT22;49345;47.428;9.892;2022-09-09T08:20:21;16.80;99.90
58161;DHT22;49345;47.428;9.892;2022-09-09T08:22:48;16.90;99.90
58161;DHT22;49345;47.428;9.892;2022-09-09T08:25:15;16.80;99.90
58161;DHT22;49345;47.428;9.892;2022-09-09T08:27:40;16.90;99.90
58161;DHT22;49345;47.428;9.892;2022-09-09T08:30:06;16.80;99.90
58161;DHT22;49345;47.428;9.892;2022-09-09T08:32:32;16.70;99.90
58161;DHT22;49345;47.428;9.892;2022-09-09T08:34:57;16.60;99.90
58161;DHT22;49345;47.428;9.892;2022-09-09T08:37:23;16.50;99.90
58161;DHT22;49345;47.428;9.892;2022-09-09T08:39:48;16.50;99.90
58161;DHT22;49345;47.428;9.892;2022-09-09T08:42:21;16.60;99.90
58161;DHT22;49345;47.428;9.892;2022-09-09T08:58:47;16.90;99.90
58161;DHT22;49345;47.428;9.892;2022-09-09T09:04:00;16.80;99.90
58161;DHT22;49345;47.428;9.892;2022-09-09T09:12:10;16.90;99.90
58161;DHT22;49345;47.428;9.892;2022-09-09T09:14:39;16.90;99.90
58161;DHT22;49345;47.428;9.892;2022-09-09T09:17:06;16.90;99.90
58161;DHT22;49345;47.428;9.892;2022-09-09T09:19:34;16.90;99.90
58161;DHT22;49345;47.428;9.892;2022-09-09T09:27:43;16.70;99.90
58161;DHT22;49345;47.428;9.892;2022-09-09T09:30:17;16.80;99.90
58161;DHT22;49345;47.428;9.892;2022-09-09T09:32:50;16.80;99.90
58161;DHT22;49345;47.428;9.892;2022-09-09T09:35:17;17.00;99.90
58161;DHT22;49345;47.428;9.892;2022-09-09T09:37:42;17.00;99.90
58161;DHT22;49345;47.428;9.892;2022-09-09T09:40:12;17.00;99.90
58161;DHT22;49345;47.428;9.892;2022-09-09T09:42:38;17.00;99.90
58161;DHT22;49345;47.428;9.892;2022-09-09T09:48:10;16.90;99.90
58161;DHT22;49345;47.428;9.892;2022-09-09T09:50:40;17.00;99.90
58161;DHT22;49345;47.428;9.892;2022-09-09T09:53:20;17.00;99.90
58161;DHT22;49345;47.428;9.892;2022-09-09T09:55:49;17.00;99.90
58161;DHT22;49345;47.428;9.892;2022-09-09T09:58:15;16.90;99.90
58161;DHT22;49345;47.428;9.892;2022-09-09T10:00:49;16.80;99.90
58161;DHT22;49345;47.428;9.892;2022-09-09T10:03:20;16.50;99.90
58161;DHT22;49345;47.428;9.892;2022-09-09T10:05:46;16.50;99.90
58161;DHT22;49345;47.428;9.892;2022-09-09T10:08:13;16.50;99.90
58161;DHT22;49345;47.428;9.892;2022-09-09T10:16:19;16.30;99.90
58161;DHT22;49345;47.428;9.892;2022-09-09T10:18:57;16.40;99.90
58161;DHT22;49345;47.428;9.892;2022-09-09T10:24:11;16.50;99.90
58161;DHT22;49345;47.428;9.892;2022-09-09T10:32:33;16.60;99.90
58161;DHT22;49345;47.428;9.892;2022-09-09T10:40:33;17.10;99.90
58161;DHT22;49345;47.428;9.892;2022-09-09T10:56:58;18.10;99.90
58161;DHT22;49345;47.428;9.892;2022-09-09T10:59:28;18.40;99.90
58161;DHT22;49345;47.428;9.892;2022-09-09T11:01:57;18.50;99.90
58161;DHT22;49345;47.428;9.892;2022-09-09T11:04:26;18.60;99.90
58161;DHT22;49345;47.428;9.892;2022-09-09T11:06:57;18.70;99.90
58161;DHT22;49345;47.428;9.892;2022-09-09T11:09:30;18.80;99.90
58161;DHT22;49345;47.428;9.892;2022-09-09T11:11:57;18.80;99.90
58161;DHT22;49345;47.428;9.892;2022-09-09T11:14:27;18.80;99.90
58161;DHT22;49345;47.428;9.892;2022-09-09T11:19:50;18.60;99.90
58161;DHT22;49345;47.428;9.892;2022-09-09T11:30:47;18.00;99.90
58161;DHT22;49345;47.428;9.892;2022-09-09T11:33:20;17.90;99.90
58161;DHT22;49345;47.428;9.892;2022-09-09T11:38:44;17.80;99.90
58161;DHT22;49345;47.428;9.892;2022-09-09T11:41:10;17.80;99.90
58161;DHT22;49345;47.428;9.892;2022-09-09T11:43:39;17.80;99.90
58161;DHT22;49345;47.428;9.892;2022-09-09T11:46:05;17.90;99.90
58161;DHT22;49345;47.428;9.892;2022-09-09T11:57:23;18.20;99.90
58161;DHT22;49345;47.428;9.892;2022-09-09T11:59:50;18.50;99.90
58161;DHT22;49345;47.428;9.892;2022-09-09T12:07:48;19.10;99.90
58161;DHT22;49345;47.428;9.892;2022-09-09T12:13:07;19.30;99.90
58161;DHT22;49345;47.428;9.892;2022-09-09T12:15:32;19.40;99.90
58161;DHT22;49345;47.428;9.892;2022-09-09T12:17:58;19.50;99.90
58161;DHT22;49345;47.428;9.892;2022-09-09T12:20:31;19.30;99.90
58161;DHT22;49345;47.428;9.892;2022-09-09T12:23:05;19.00;99.90
58161;DHT22;49345;47.428;9.892;2022-09-09T12:28:26;18.50;99.90
58161;DHT22;49345;47.428;9.892;2022-09-09T12:31:03;18.50;99.90
58161;DHT22;49345;47.428;9.892;2022-09-09T12:33:35;18.70;99.90
58161;DHT22;49345;47.428;9.892;2022-09-09T12:36:01;18.70;99.90
58161;DHT22;49345;47.428;9.892;2022-09-09T12:38:30;18.60;99.90
58161;DHT22;49345;47.428;9.892;2022-09-09T12:40:58;18.80;99.90
58161;DHT22;49345;47.428;9.892;2022-09-09T12:43:24;19.00;99.90
58161;DHT22;49345;47.428;9.892;2022-09-09T12:45:51;19.00;99.90
58161;DHT22;49345;47.428;9.892;2022-09-09T12:48:24;19.10;99.90
58161;DHT22;49345;47.428;9.892;2022-09-09T12:50:51;19.20;99.90
58161;DHT22;49345;47.428;9.892;2022-09-09T12:53:26;19.20;99.90
58161;DHT22;49345;47.428;9.892;2022-09-09T12:55:53;19.10;99.90
58161;DHT22;49345;47.428;9.892;2022-09-09T12:58:20;18.90;99.90
58161;DHT22;49345;47.428;9.892;2022-09-09T13:00:50;18.90;99.90
58161;DHT22;49345;47.428;9.892;2022-09-09T13:03:18;19.00;99.90
58161;DHT22;49345;47.428;9.892;2022-09-09T13:05:45;19.10;99.90
58161;DHT22;49345;47.428;9.892;2022-09-09T13:08:12;19.10;99.90
58161;DHT22;49345;47.428;9.892;2022-09-09T13:13:21;19.40;99.90
58161;DHT22;49345;47.428;9.892;2022-09-09T13:15:48;19.60;99.90
58161;DHT22;49345;47.428;9.892;2022-09-09T13:18:14;19.80;99.90
58161;DHT22;49345;47.428;9.892;2022-09-09T13:20:45;19.90;99.90
58161;DHT22;49345;47.428;9.892;2022-09-09T13:23:11;20.00;99.90
58161;DHT22;49345;47.428;9.892;2022-09-09T13:25:37;19.90;99.90
58161;DHT22;49345;47.428;9.892;2022-09-09T13:28:04;20.00;99.90
58161;DHT22;49345;47.428;9.892;2022-09-09T13:30:32;19.90;99.90
58161;DHT22;49345;47.428;9.892;2022-09-09T13:35:56;19.70;99.90
58161;DHT22;49345;47.428;9.892;2022-09-09T13:38:22;19.50;99.90
58161;DHT22;49345;47.428;9.892;2022-09-09T13:43:43;19.40;99.90
58161;DHT22;49345;47.428;9.892;2022-09-09T13:52:20;19.30;99.90
58161;DHT22;49345;47.428;9.892;2022-09-09T13:54:48;19.20;99.90
58161;DHT22;49345;47.428;9.892;2022-09-09T13:57:15;19.20;99.90
58161;DHT22;49345;47.428;9.892;2022-09-09T14:02:16;19.30;99.90
58161;DHT22;49345;47.428;9.892;2022-09-09T14:04:42;19.30;99.90
58161;DHT22;49345;47.428;9.892;2022-09-09T14:07:15;19.50;99.90
58161;DHT22;49345;47.428;9.892;2022-09-09T14:09:41;19.50;99.90
58161;DHT22;49345;47.428;9.892;2022-09-09T14:12:09;19.60;99.90
58161;DHT22;49345;47.428;9.892;2022-09-09T14:14:35;19.70;99.90
58161;DHT22;49345;47.428;9.892;2022-09-09T14:17:01;19.70;99.90
58161;DHT22;49345;47.428;9.892;2022-09-09T14:19:27;19.80;99.90
58161;DHT22;49345;47.428;9.892;2022-09-09T14:21:52;19.80;99.90
58161;DHT22;49345;47.428;9.892;2022-09-09T14:24:18;19.90;99.90
58161;DHT22;49345;47.428;9.892;2022-09-09T14:26:43;20.00;99.80
58161;DHT22;49345;47.428;9.892;2022-09-09T14:29:09;20.00;99.90
58161;DHT22;49345;47.428;9.892;2022-09-09T14:31:34;20.00;99.90
58161;DHT22;49345;47.428;9.892;2022-09-09T14:34:00;20.00;99.90
58161;DHT22;49345;47.428;9.892;2022-09-09T14:36:25;19.90;99.90
58161;DHT22;49345;47.428;9.892;2022-09-09T14:38:51;19.90;99.90
58161;DHT22;49345;47.428;9.892;2022-09-09T14:41:18;19.90;99.90
58161;DHT22;49345;47.428;9.892;2022-09-09T14:43:44;19.80;99.90
58161;DHT22;49345;47.428;9.892;2022-09-09T14:46:10;19.80;99.90
58161;DHT22;49345;47.428;9.892;2022-09-09T14:48:36;19.70;99.80
58161;DHT22;49345;47.428;9.892;2022-09-09T14:51:06;19.70;99.90
58161;DHT22;49345;47.428;9.892;2022-09-09T14:53:32;19.70;99.90
58161;DHT22;49345;47.428;9.892;2022-09-09T14:58:50;19.80;99.70
58161;DHT22;49345;47.428;9.892;2022-09-09T15:01:18;19.70;99.90
58161;DHT22;49345;47.428;9.892;2022-09-09T15:03:52;19.70;99.90
58161;DHT22;49345;47.428;9.892;2022-09-09T15:06:18;19.70;99.90
58161;DHT22;49345;47.428;9.892;2022-09-09T15:08:45;19.70;99.40
58161;DHT22;49345;47.428;9.892;2022-09-09T15:11:11;19.70;99.50
58161;DHT22;49345;47.428;9.892;2022-09-09T15:13:38;19.70;99.90
58161;DHT22;49345;47.428;9.892;2022-09-09T15:16:05;19.70;99.60
58161;DHT22;49345;47.428;9.892;2022-09-09T15:18:31;19.60;99.90
58161;DHT22;49345;47.428;9.892;2022-09-09T15:20:59;19.50;99.90
58161;DHT22;49345;47.428;9.892;2022-09-09T15:23:26;19.40;99.90
58161;DHT22;49345;47.428;9.892;2022-09-09T15:25:52;19.30;99.90
58161;DHT22;49345;47.428;9.892;2022-09-09T15:28:18;19.30;99.90
58161;DHT22;49345;47.428;9.892;2022-09-09T15:30:46;19.40;99.90
58161;DHT22;49345;47.428;9.892;2022-09-09T15:33:12;19.50;99.90
58161;DHT22;49345;47.428;9.892;2022-09-09T15:35:37;19.50;99.90
58161;DHT22;49345;47.428;9.892;2022-09-09T15:38:03;19.50;99.90
58161;DHT22;49345;47.428;9.892;2022-09-09T15:40:30;19.30;99.90
58161;DHT22;49345;47.428;9.892;2022-09-09T15:42:57;19.40;99.90
58161;DHT22;49345;47.428;9.892;2022-09-09T15:45:23;19.50;99.90
58161;DHT22;49345;47.428;9.892;2022-09-09T15:47:48;19.60;99.90
58161;DHT22;49345;47.428;9.892;2022-09-09T15:50:14;19.60;99.90
58161;DHT22;49345;47.428;9.892;2022-09-09T15:52:39;19.70;99.90
58161;DHT22;49345;47.428;9.892;2022-09-09T15:55:05;19.80;99.90
58161;DHT22;49345;47.428;9.892;2022-09-09T15:57:31;19.80;99.90
58161;DHT22;49345;47.428;9.892;2022-09-09T15:59:56;19.90;99.90
58161;DHT22;49345;47.428;9.892;2022-09-09T16:02:22;20.00;99.90
58161;DHT22;49345;47.428;9.892;2022-09-09T16:04:47;20.00;99.90
58161;DHT22;49345;47.428;9.892;2022-09-09T16:07:13;19.80;99.90
58161;DHT22;49345;47.428;9.892;2022-09-09T16:12:41;19.50;99.90
58161;DHT22;49345;47.428;9.892;2022-09-09T16:15:07;19.30;99.90
58161;DHT22;49345;47.428;9.892;2022-09-09T16:17:33;19.30;99.90
58161;DHT22;49345;47.428;9.892;2022-09-09T16:20:03;19.20;99.90
58161;DHT22;49345;47.428;9.892;2022-09-09T16:22:30;19.10;99.90
58161;DHT22;49345;47.428;9.892;2022-09-09T16:24:56;19.00;99.90
58161;DHT22;49345;47.428;9.892;2022-09-09T16:27:21;19.00;99.90
58161;DHT22;49345;47.428;9.892;2022-09-09T16:29:48;18.90;99.90
58161;DHT22;49345;47.428;9.892;2022-09-09T16:32:14;18.80;99.90
58161;DHT22;49345;47.428;9.892;2022-09-09T16:34:40;18.60;99.90
58161;DHT22;49345;47.428;9.892;2022-09-09T16:37:05;18.60;99.90
58161;DHT22;49345;47.428;9.892;2022-09-09T16:39:31;18.50;99.90
58161;DHT22;49345;47.428;9.892;2022-09-09T16:41:56;18.50;99.90
58161;DHT22;49345;47.428;9.892;2022-09-09T16:44:22;18.40;99.90
58161;DHT22;49345;47.428;9.892;2022-09-09T16:46:48;18.50;99.90
58161;DHT22;49345;47.428;9.892;2022-09-09T16:49:14;18.40;99.90
58161;DHT22;49345;47.428;9.892;2022-09-09T16:54:21;18.20;99.90
58161;DHT22;49345;47.428;9.892;2022-09-09T16:56:48;18.20;99.90
58161;DHT22;49345;47.428;9.892;2022-09-09T16:59:15;17.90;99.90
58161;DHT22;49345;47.428;9.892;2022-09-09T17:01:41;18.00;99.90
58161;DHT22;49345;47.428;9.892;2022-09-09T17:04:09;17.90;99.90
58161;DHT22;49345;47.428;9.892;2022-09-09T17:06:36;18.00;99.90
58161;DHT22;49345;47.428;9.892;2022-09-09T17:09:04;17.90;99.90
58161;DHT22;49345;47.428;9.892;2022-09-09T17:11:30;17.90;99.90
58161;DHT22;49345;47.428;9.892;2022-09-09T17:13:56;17.90;99.90
58161;DHT22;49345;47.428;9.892;2022-09-09T17:16:24;17.80;99.90
58161;DHT22;49345;47.428;9.892;2022-09-09T17:18:50;17.70;99.90
58161;DHT22;49345;47.428;9.892;2022-09-09T17:21:19;17.70;99.90
58161;DHT22;49345;47.428;9.892;2022-09-09T17:23:44;17.50;99.90
58161;DHT22;49345;47.428;9.892;2022-09-09T17:26:11;17.50;99.90
58161;DHT22;49345;47.428;9.892;2022-09-09T17:28:38;17.50;99.90
58161;DHT22;49345;47.428;9.892;2022-09-09T17:31:04;17.40;99.90
58161;DHT22;49345;47.428;9.892;2022-09-09T17:33:31;17.40;99.90
58161;DHT22;49345;47.428;9.892;2022-09-09T17:35:58;17.40;99.90
58161;DHT22;49345;47.428;9.892;2022-09-09T17:38:24;17.40;99.90
58161;DHT22;49345;47.428;9.892;2022-09-09T17:43:46;17.40;99.90
58161;DHT22;49345;47.428;9.892;2022-09-09T17:46:14;17.40;99.90
58161;DHT22;49345;47.428;9.892;2022-09-09T17:48:39;17.30;99.90
58161;DHT22;49345;47.428;9.892;2022-09-09T17:51:06;17.20;99.90
58161;DHT22;49345;47.428;9.892;2022-09-09T17:53:37;17.20;99.90
58161;DHT22;49345;47.428;9.892;2022-09-09T17:56:04;17.10;99.90
58161;DHT22;49345;47.428;9.892;2022-09-09T17:58:30;17.10;99.90
58161;DHT22;49345;47.428;9.892;2022-09-09T18:00:55;17.00;99.90
58161;DHT22;49345;47.428;9.892;2022-09-09T18:03:21;16.80;99.90
58161;DHT22;49345;47.428;9.892;2022-09-09T18:05:47;16.80;99.90
58161;DHT22;49345;47.428;9.892;2022-09-09T18:08:12;16.70;99.90
58161;DHT22;49345;47.428;9.892;2022-09-09T18:10:38;16.60;99.90
58161;DHT22;49345;47.428;9.892;2022-09-09T18:13:04;16.50;99.90
58161;DHT22;49345;47.428;9.892;2022-09-09T18:15:35;16.50;99.90
58161;DHT22;49345;47.428;9.892;2022-09-09T18:18:01;16.60;99.90
58161;DHT22;49345;47.428;9.892;2022-09-09T18:20:30;16.50;99.90